Detall de PIREP

Printer-friendly versionPDF version

[2010/06/12 17:31:00]
Flight IATA:CT2206
Pilot Number:026
Company ICAO:CAT
Aircraft Type:DC85/A
PAX:136
Departing Airport: LFMP
Destination Airport: LFSD
Alternate Airport:LFLL
Online: VATSIM
Route:SIJAN A27 MOU G21 CACHI
Flight Level:FL180
No Slew and time accel
No pause
Crash detect
Detect pilot in Cockpit between each 30 and 45 minutes
17:31 Zero fuel Weight: 185026 Lbs, Fuel Weight: 23798 Lbs
17:31 VATSIM:LFMP 121700Z 10004KT 060V160 9999 FEW030 FEW040CB SCT230 22/13 Q1011 NOSIG
17:31 VATSIM:LFSD 120400Z AUTO 20004KT 9999NDV NSC 13/13 Q1012
17:31 VOICE CATALONIAN / IATA CT2206
17:35 Parking Brakes off
17:39 Take-off
17:39 Take off Weight: 208042 Lbs
17:39 Wind: 153º @ 004 Knots Heading: 329º
17:39 POS N42º 45´ 12´´ E002º 51´ 45´´
17:39 Gear Up: 169 Knots
17:39 Flaps:2 at 169 Knots
17:40 Flaps:1 at 210 Knots
17:41 Flaps:0 at 240 Knots
17:46 TOC
17:46 Fuel W
eight: 20760 Lb
17:54 Wind:326º@012 Knots Heading: 003º Ground Speed: 409 Knots Altitude 17969 ft
18:09 Wind:350º@020 Knots Heading: 008º Ground Speed: 397 Knots Altitude 17985 ft
18:20 TOD
18:20 Fuel Weight: 12757 Lb
18:24 Wind:290º@004 Knots Heading: 071º Ground Speed: 342 Knots Altitude 11683 ft
18:28 Flaps:1 at 288 Knots
18:32 Flaps:2 at 205 Knots
18:34 Gear Down: 163 Knots
18:35 Flaps:3 at 161 Knots
18:35 Flaps:4 at 174 Knots
18:36 Flaps:5 at 163 Knots
18:37 TouchDown:Rate -357 ft/min Speed: 130 Knots
18:37 VATSIM:LFSD 120400Z AUTO 20004KT 9999NDV NSC 13/13 Q1012
18:37 Land
18:37 Wind:198º@004 Knots
18:37 Heading: 174º
18:37 Flight Duration: 00:58
18:37 Landing Weight: 196107 Lbs
18:37 POS N47º 15´ 42´´ E005º 05´ 44´´
18:48 Parking brakes on
18:48 Block to Block Duration: 01:13
18:48 Final Fuel: 10156 Lbls
18:48 Spent Fuel: 13642 Lbls
18:48 Flig
ht Length: 336 NM
18:48 TOD Land Length: 75 NM

Exportar CSV

Powered by Drupal - Modified by Danger4k